logo
Search for airport 
image banner adimage banner adimage banner ad
image banner ad

WSSS - Singapore / Singapore Changi International

Located in Singapore, Singapore

ICAO - WSSS, IATA - SIN

Data provided by Airmate  

General information

Coordinates: N1°21'33" E103°59'22"
Elevation is 22 feet MSL.
 
View others Airports in South East

Operational data

Special qualification required
Current time UTC:
Current local time:
Weather
METAR: WSSS 111930Z 34004KT 310V010 9999 FEW016 FEW018CB BKN300 26/25 Q1008 NOSIG
TAF: TAF WSSS 111700Z 1118/1300 35008KT 9999 FEW015 SCT020 TEMPO 1206/1209 3000 TSRA FEW012CB BKN015
View NOTAMs / SUP AIP / TFR affecting this airport [VIEW]
Communications frequencies: [VIEW]

Runways:

RWY identifierQFULength (ft)Width (ft)SurfaceLDA (ft)
02C23°13123197ASP
20C203°13123197ASP
02L23°13123197ASP
20R203°13123197ASP
02R23°13123197ASP
20L203°13123197ASP

Airport contact information

Address: Singapore Singapore

Satellite view of WSSS